Private Wetterstation Wechselburg
Wetterdaten: Woche 07.08.23 - 13.08.23 (KW32)
Datum Zeit Temp. +2m Bodentemp. Temp.+5cm Temp. Wind Windchill X Diff Temp. Feuchte +2m Feuchte +5cm Luftdruck Regen Wind Richtung Sonnenschein Taupunkt Windchill Windben
07.08.2023 00:00 13,9 C 18,0 C 14,2 C 14,1 C 14,0 C 0,2 C 88 % 90 % 1003,3 hPa 0,0 l/m 0,1 km/h (0 Bft) N 0,00 h 11,9 C 14,0 C 0,7 km/h (0 Bft)
07.08.2023 01:00 13,5 C 17,9 C 14,0 C 13,9 C 13,9 C 0,4 C 88 % 90 % 1003,5 hPa 0,0 l/m 0,1 km/h (0 Bft) N 0,00 h 11,6 C 13,9 C 1,3 km/h (1 Bft)
07.08.2023 02:00 13,4 C 17,8 C 14,0 C 13,9 C 13,9 C 0,5 C 88 % 90 % 1003,7 hPa 0,7 l/m 0,2 km/h (0 Bft) N 0,00 h 11,5 C 13,9 C 0,9 km/h (0 Bft)
07.08.2023 03:00 13,3 C 17,7 C 13,9 C 13,8 C 13,8 C 0,5 C 88 % 90 % 1003,8 hPa 0,0 l/m 0,7 km/h (0 Bft) SW 0,00 h 11,3 C 13,8 C 2,0 km/h (1 Bft)
07.08.2023 04:00 13,2 C 17,6 C 13,8 C 13,9 C 13,9 C 0,6 C 88 % 90 % 1004,0 hPa 0,0 l/m 0,8 km/h (0 Bft) SW 0,00 h 11,3 C 13,9 C 2,5 km/h (1 Bft)
07.08.2023 05:00 13,2 C 17,5 C 13,6 C 13,8 C 13,8 C 0,6 C 88 % 90 % 1004,4 hPa 0,0 l/m 0,4 km/h (0 Bft) N 0,08 h 11,3 C 13,8 C 1,3 km/h (1 Bft)
07.08.2023 06:00 13,3 C 17,5 C 13,7 C 13,9 C 13,9 C 0,7 C 88 % 90 % 1005,3 hPa 0,7 l/m 0,4 km/h (0 Bft) N 0,50 h 11,3 C 13,9 C 0,9 km/h (0 Bft)
07.08.2023 07:00 13,0 C 17,4 C 13,4 C 13,5 C 13,5 C 0,4 C 88 % 90 % 1005,6 hPa 0,0 l/m 0,8 km/h (0 Bft) SW 0,00 h 11,1 C 13,5 C 1,5 km/h (1 Bft)
07.08.2023 08:00 13,2 C 17,2 C 13,6 C 14,7 C 14,7 C 1,5 C 88 % 90 % 1006,2 hPa 0,0 l/m 1,7 km/h (1 Bft) S-SW 0,00 h 11,3 C 14,7 C 2,4 km/h (1 Bft)
07.08.2023 09:00 14,1 C 17,1 C 14,2 C 16,2 C 16,2 C 2,1 C 88 % 90 % 1006,7 hPa 0,0 l/m 1,8 km/h (1 Bft) SW 0,00 h 12,2 C 16,2 C 3,3 km/h (1 Bft)
07.08.2023 10:00 15,0 C 16,9 C 14,7 C 17,1 C 17,1 C 2,1 C 86 % 90 % 1007,3 hPa 0,0 l/m 0,9 km/h (0 Bft) SW 0,00 h 12,7 C 17,1 C 1,7 km/h (1 Bft)
07.08.2023 11:00 15,7 C 16,8 C 15,3 C 18,8 C 18,8 C 3,0 C 83 % 84 % 1007,6 hPa 0,0 l/m 0,1 km/h (0 Bft) N 0,08 h 12,9 C 18,8 C 0,3 km/h (0 Bft)
07.08.2023 12:00 16,4 C 16,8 C 16,1 C 19,4 C 19,4 C 3,0 C 81 % 81 % 1008,0 hPa 0,7 l/m 0,0 km/h (0 Bft) N 0,42 h 13,0 C 19,4 C 0,0 km/h (0 Bft)
07.08.2023 13:00 16,0 C 17,0 C 15,6 C 17,8 C 17,8 C 1,8 C 84 % 90 % 1008,3 hPa 0,0 l/m 0,0 km/h (0 Bft) N 0,08 h 13,3 C 17,8 C 0,1 km/h (0 Bft)
07.08.2023 14:00 16,8 C 16,9 C 16,2 C 19,2 C 19,2 C 2,5 C 82 % 90 % 1008,3 hPa 0,0 l/m 0,1 km/h (0 Bft) N 0,25 h 13,7 C 19,2 C 1,6 km/h (1 Bft)
07.08.2023 15:00 16,9 C 16,8 C 16,4 C 18,8 C 18,7 C 1,9 C 79 % 86 % 1008,7 hPa 0,0 l/m 0,1 km/h (0 Bft) N 0,25 h 13,2 C 18,7 C 0,4 km/h (0 Bft)
07.08.2023 16:00 16,3 C 16,9 C 15,8 C 16,9 C 16,9 C 0,7 C 80 % 87 % 1009,5 hPa 0,0 l/m 0,1 km/h (0 Bft) N 0,00 h 12,8 C 16,9 C 0,3 km/h (0 Bft)
07.08.2023 17:00 15,9 C 17,1 C 15,5 C 17,0 C 16,9 C 1,1 C 83 % 88 % 1010,2 hPa 1,4 l/m 0,1 km/h (0 Bft) N 0,00 h 13,0 C 16,9 C 0,1 km/h (0 Bft)
07.08.2023 18:00 14,6 C 17,1 C 14,2 C 14,6 C 14,5 C 0,1 C 86 % 90 % 1010,8 hPa 0,0 l/m 0,3 km/h (0 Bft) N 0,00 h 12,3 C 14,5 C 1,6 km/h (1 Bft)
07.08.2023 19:00 15,1 C 16,8 C 14,4 C 15,9 C 15,9 C 0,8 C 83 % 90 % 1011,3 hPa 0,0 l/m 0,1 km/h (0 Bft) N 0,00 h 12,2 C 15,9 C 0,3 km/h (0 Bft)
07.08.2023 20:00 15,1 C 16,7 C 14,2 C 15,2 C 15,1 C 0,1 C 79 % 87 % 1011,6 hPa 0,0 l/m 0,0 km/h (0 Bft) N 0,00 h 11,4 C 15,1 C 0,0 km/h (0 Bft)
07.08.2023 21:00 14,7 C 16,7 C 13,6 C 14,4 C 14,0 C 0,0 C 77 % 82 % 1012,3 hPa 0,0 l/m 0,0 km/h (0 Bft) N 0,00 h 10,6 C 14,0 C 0,0 km/h (0 Bft)
07.08.2023 22:00 14,2 C 16,6 C 13,5 C 14,1 C 14,0 C 0,0 C 76 % 81 % 1012,9 hPa 0,0 l/m 0,0 km/h (0 Bft) N 0,00 h 10,1 C 14,0 C 0,0 km/h (0 Bft)
07.08.2023 23:00 13,9 C 16,5 C 13,4 C 13,8 C 13,6 C 0,0 C 79 % 80 % 1013,3 hPa 0,0 l/m 0,0 km/h (0 Bft) N 0,00 h 10,4 C 13,6 C 0,0 km/h (0 Bft)
08.08.2023 00:00 13,3 C 16,6 C 12,5 C 12,9 C 12,2 C 0,0 C 81 % 81 % 1013,4 hPa 0,0 l/m 0,0 km/h (0 Bft) N 0,00 h 10,1 C 12,2 C 0,0 km/h (0 Bft)
08.08.2023 01:00 12,7 C 16,5 C 12,3 C 12,5 C 12,1 C 0,0 C 82 % 79 % 1013,3 hPa 0,0 l/m 0,2 km/h (0 Bft) N 0,00 h 9,8 C 12,1 C 0,7 km/h (0 Bft)
08.08.2023 02:00 12,1 C 16,3 C 11,6 C 11,8 C 11,3 C 0,0 C 83 % 77 % 1013,2 hPa 0,0 l/m 0,3 km/h (0 Bft) N 0,00 h 9,3 C 11,3 C 1,5 km/h (1 Bft)
08.08.2023 03:00 11,5 C 16,2 C 11,1 C 11,2 C 10,6 C 0,0 C 84 % 77 % 1013,2 hPa 0,0 l/m 0,3 km/h (0 Bft) N 0,00 h 8,8 C 10,6 C 0,2 km/h (0 Bft)
08.08.2023 04:00 11,2 C 16,0 C 10,8 C 10,9 C 10,3 C 0,0 C 83 % 77 % 1013,2 hPa 0,0 l/m 0,2 km/h (0 Bft) S-SO 0,00 h 8,4 C 10,3 C 2,2 km/h (1 Bft)
08.08.2023 05:00 10,9 C 16,0 C 10,4 C 10,7 C 10,2 C 0,0 C 83 % 77 % 1013,3 hPa 0,0 l/m 0,8 km/h (0 Bft) S-SO 0,00 h 8,2 C 10,2 C 2,2 km/h (1 Bft)
08.08.2023 06:00 11,0 C 15,9 C 10,8 C 11,1 C 10,9 C 0,2 C 85 % 78 % 1013,1 hPa 0,0 l/m 0,7 km/h (0 Bft) N 0,00 h 8,5 C 10,9 C 1,5 km/h (1 Bft)
08.08.2023 07:00 11,9 C 15,8 C 11,9 C 12,4 C 12,4 C 0,5 C 84 % 77 % 1013,3 hPa 0,0 l/m 1,0 km/h (0 Bft) S 0,00 h 9,3 C 12,4 C 2,8 km/h (1 Bft)
08.08.2023 08:00 12,6 C 15,6 C 12,5 C 12,8 C 12,8 C 0,3 C 83 % 76 % 1013,2 hPa 0,0 l/m 0,2 km/h (0 Bft) N 0,00 h 9,8 C 12,8 C 1,1 km/h (0 Bft)
08.08.2023 09:00 13,4 C 15,6 C 13,5 C 14,5 C 14,5 C 1,2 C 82 % 75 % 1013,1 hPa 0,0 l/m 0,5 km/h (0 Bft) W 0,00 h 10,4 C 14,5 C 1,7 km/h (1 Bft)
08.08.2023 10:00 14,5 C 15,6 C 14,6 C 16,5 C 16,5 C 2,0 C 80 % 71 % 1013,2 hPa 0,0 l/m 0,1 km/h (0 Bft) N 0,00 h 11,0 C 16,5 C 0,0 km/h (0 Bft)
08.08.2023 11:00 15,5 C 15,6 C 15,3 C 16,6 C 16,6 C 1,1 C 76 % 69 % 1013,0 hPa 0,0 l/m 0,0 km/h (0 Bft) N 0,00 h 11,3 C 16,6 C 0,0 km/h (0 Bft)
08.08.2023 12:00 16,3 C 15,6 C 16,2 C 16,7 C 16,6 C 0,4 C 74 % 66 % 1013,1 hPa 0,0 l/m 0,0 km/h (0 Bft) N 0,00 h 11,6 C 16,6 C 0,0 km/h (0 Bft)
08.08.2023 13:00 18,3 C 15,6 C 17,9 C 17,8 C 16,6 C 0,0 C 64 % 56 % 1012,2 hPa 0,0 l/m 0,0 km/h (0 Bft) N 0,00 h 11,3 C 16,6 C 0,0 km/h (0 Bft)
08.08.2023 14:00 19,2 C 15,7 C 18,8 C 18,4 C 16,6 C 0,0 C 58 % 53 % 1011,7 hPa 0,0 l/m 0,0 km/h (0 Bft) N 0,00 h 10,7 C 16,6 C 0,0 km/h (0 Bft)
08.08.2023 15:00 19,2 C 15,8 C 18,7 C 20,3 C 19,7 C 1,4 C 57 % 52 % 1011,7 hPa 0,0 l/m 0,1 km/h (0 Bft) N 0,17 h 10,3 C 19,7 C 0,2 km/h (0 Bft)
08.08.2023 16:00 18,8 C 15,9 C 18,2 C 19,8 C 19,8 C 1,0 C 57 % 51 % 1011,7 hPa 0,0 l/m 0,1 km/h (0 Bft) N 0,00 h 10,2 C 19,8 C 1,2 km/h (1 Bft)
08.08.2023 17:00 17,5 C 16,0 C 16,9 C 18,0 C 18,0 C 0,5 C 63 % 57 % 1012,6 hPa 0,0 l/m 0,0 km/h (0 Bft) N 0,00 h 10,4 C 18,0 C 0,0 km/h (0 Bft)
08.08.2023 18:00 16,4 C 16,1 C 15,9 C 16,5 C 16,4 C 0,2 C 70 % 64 % 1013,1 hPa 0,0 l/m 0,1 km/h (0 Bft) N 0,00 h 10,8 C 16,4 C 0,5 km/h (0 Bft)
08.08.2023 19:00 16,1 C 16,1 C 15,8 C 16,5 C 16,5 C 0,4 C 73 % 66 % 1013,1 hPa 0,0 l/m 0,0 km/h (0 Bft) N 0,00 h 11,2 C 16,5 C 0,0 km/h (0 Bft)
08.08.2023 20:00 15,6 C 16,2 C 15,2 C 15,5 C 15,4 C 0,0 C 75 % 68 % 1012,7 hPa 0,0 l/m 0,0 km/h (0 Bft) N 0,00 h 11,2 C 15,4 C 0,0 km/h (0 Bft)
08.08.2023 21:00 15,2 C 16,2 C 14,8 C 15,1 C 14,9 C 0,0 C 77 % 71 % 1013,1 hPa 0,0 l/m 0,0 km/h (0 Bft) N 0,00 h 11,1 C 14,9 C 0,0 km/h (0 Bft)
08.08.2023 22:00 15,1 C 16,1 C 14,5 C 14,9 C 14,6 C 0,0 C 74 % 67 % 1013,1 hPa 0,0 l/m 0,0 km/h (0 Bft) N 0,00 h 10,6 C 14,6 C 0,0 km/h (0 Bft)
08.08.2023 23:00 14,3 C 16,2 C 13,5 C 14,0 C 13,2 C 0,0 C 74 % 69 % 1013,7 hPa 0,0 l/m 0,0 km/h (0 Bft) N 0,00 h 9,8 C 13,2 C 0,0 km/h (0 Bft)
09.08.2023 00:00 13,5 C 16,3 C 13,0 C 13,2 C 12,6 C 0,0 C 77 % 72 % 1014,2 hPa 0,0 l/m 0,0 km/h (0 Bft) N 0,00 h 9,6 C 12,6 C 0,0 km/h (0 Bft)
09.08.2023 01:00 13,1 C 16,3 C 12,6 C 13,0 C 12,5 C 0,0 C 79 % 73 % 1014,3 hPa 0,0 l/m 0,0 km/h (0 Bft) N 0,00 h 9,7 C 12,5 C 0,0 km/h (0 Bft)
09.08.2023 02:00 13,0 C 16,2 C 12,8 C 13,0 C 12,9 C 0,0 C 81 % 75 % 1013,5 hPa 0,0 l/m 0,0 km/h (0 Bft) N 0,00 h 9,8 C 12,9 C 0,0 km/h (0 Bft)
09.08.2023 03:00 13,2 C 16,2 C 13,1 C 13,3 C 13,2 C 0,1 C 81 % 74 % 1012,9 hPa 0,0 l/m 0,0 km/h (0 Bft) N 0,00 h 10,0 C 13,2 C 0,0 km/h (0 Bft)
09.08.2023 04:00 13,1 C 16,3 C 12,8 C 12,9 C 12,6 C 0,0 C 82 % 78 % 1012,9 hPa 0,0 l/m 0,0 km/h (0 Bft) N 0,00 h 10,1 C 12,6 C 0,0 km/h (0 Bft)
09.08.2023 05:00 13,1 C 16,5 C 12,5 C 12,9 C 12,3 C 0,0 C 84 % 89 % 1012,0 hPa 0,0 l/m 0,0 km/h (0 Bft) N 0,00 h 10,5 C 12,3 C 0,0 km/h (0 Bft)
09.08.2023 06:00 13,2 C 16,5 C 12,6 C 13,0 C 12,7 C 0,0 C 86 % 90 % 1012,0 hPa 6,9 l/m 0,0 km/h (0 Bft) N 0,00 h 10,9 C 12,7 C 0,0 km/h (0 Bft)
09.08.2023 07:00 12,7 C 16,6 C 12,3 C 12,7 C 12,5 C 0,0 C 88 % 90 % 1012,1 hPa 3,4 l/m 0,1 km/h (0 Bft) N 0,00 h 10,7 C 12,5 C 1,8 km/h (1 Bft)
09.08.2023 08:00 12,6 C 16,6 C 12,9 C 13,5 C 13,5 C 0,9 C 88 % 90 % 1012,4 hPa 0,7 l/m 0,2 km/h (0 Bft) N 0,00 h 10,6 C 13,5 C 0,2 km/h (0 Bft)
09.08.2023 09:00 12,9 C 16,6 C 13,5 C 15,5 C 15,5 C 2,6 C 88 % 90 % 1013,3 hPa 0,0 l/m 0,1 km/h (0 Bft) N 0,33 h 11,0 C 15,5 C 0,0 km/h (0 Bft)
09.08.2023 10:00 12,8 C 16,6 C 13,3 C 16,8 C 16,8 C 4,1 C 88 % 90 % 1014,0 hPa 0,0 l/m 0,1 km/h (0 Bft) N 0,67 h 10,8 C 16,8 C 0,5 km/h (0 Bft)
09.08.2023 11:00 13,6 C 16,3 C 13,6 C 18,3 C 18,3 C 4,7 C 88 % 90 % 1014,9 hPa 0,0 l/m 0,1 km/h (0 Bft) N 1,00 h 11,6 C 18,3 C 0,4 km/h (0 Bft)
09.08.2023 12:00 15,2 C 15,9 C 13,9 C 19,9 C 19,9 C 4,7 C 84 % 90 % 1014,9 hPa 0,0 l/m 0,0 km/h (0 Bft) N 1,00 h 12,4 C 19,9 C 0,0 km/h (0 Bft)
09.08.2023 13:00 17,5 C 15,8 C 15,9 C 24,2 C 24,2 C 6,7 C 70 % 85 % 1015,1 hPa 0,0 l/m 0,0 km/h (0 Bft) N 1,00 h 11,9 C 24,2 C 0,0 km/h (0 Bft)
09.08.2023 14:00 18,9 C 15,8 C 17,8 C 23,9 C 23,9 C 5,0 C 60 % 66 % 1015,4 hPa 0,0 l/m 0,0 km/h (0 Bft) N 1,00 h 11,0 C 23,9 C 0,0 km/h (0 Bft)
09.08.2023 15:00 19,0 C 15,8 C 18,8 C 24,4 C 24,4 C 5,4 C 56 % 53 % 1015,9 hPa 0,0 l/m 0,0 km/h (0 Bft) N 1,00 h 10,0 C 24,4 C 0,0 km/h (0 Bft)
09.08.2023 16:00 19,3 C 15,9 C 18,6 C 22,7 C 22,7 C 3,4 C 54 % 50 % 1016,2 hPa 0,0 l/m 0,0 km/h (0 Bft) N 0,58 h 9,7 C 22,7 C 0,0 km/h (0 Bft)
09.08.2023 17:00 19,5 C 16,0 C 18,7 C 20,2 C 20,2 C 0,7 C 53 % 49 % 1016,6 hPa 0,0 l/m 0,0 km/h (0 Bft) N 0,00 h 9,7 C 20,2 C 0,0 km/h (0 Bft)
09.08.2023 18:00 19,4 C 16,1 C 18,2 C 20,0 C 20,0 C 0,6 C 53 % 50 % 1016,9 hPa 0,0 l/m 0,0 km/h (0 Bft) N 0,00 h 9,6 C 20,0 C 0,0 km/h (0 Bft)
09.08.2023 19:00 19,5 C 16,1 C 17,8 C 19,5 C 19,4 C 0,1 C 55 % 57 % 1017,4 hPa 0,0 l/m 0,0 km/h (0 Bft) N 0,00 h 10,1 C 19,4 C 0,0 km/h (0 Bft)
09.08.2023 20:00 17,0 C 16,3 C 15,0 C 16,5 C 15,4 C 0,0 C 64 % 68 % 1017,4 hPa 0,0 l/m 0,0 km/h (0 Bft) N 0,00 h 10,1 C 15,4 C 0,0 km/h (0 Bft)
09.08.2023 21:00 14,6 C 16,5 C 13,2 C 13,9 C 12,5 C 0,0 C 72 % 74 % 1017,9 hPa 0,0 l/m 0,0 km/h (0 Bft) N 0,00 h 9,6 C 12,5 C 0,0 km/h (0 Bft)
09.08.2023 22:00 13,0 C 16,7 C 12,2 C 12,5 C 11,6 C 0,0 C 79 % 78 % 1018,3 hPa 0,0 l/m 0,0 km/h (0 Bft) N 0,00 h 9,4 C 11,6 C 0,0 km/h (0 Bft)
09.08.2023 23:00 12,1 C 16,6 C 11,2 C 11,6 C 10,5 C 0,0 C 82 % 81 % 1019,2 hPa 0,0 l/m 0,0 km/h (0 Bft) N 0,00 h 9,1 C 10,5 C 0,0 km/h (0 Bft)
10.08.2023 00:00 11,0 C 16,5 C 10,3 C 10,5 C 9,5 C 0,0 C 83 % 81 % 1019,8 hPa 0,0 l/m 0,0 km/h (0 Bft) N 0,00 h 8,3 C 9,5 C 0,0 km/h (0 Bft)
10.08.2023 01:00 10,1 C 16,4 C 9,7 C 9,7 C 8,9 C 0,0 C 85 % 85 % 1020,0 hPa 0,0 l/m 0,0 km/h (0 Bft) N 0,00 h 7,6 C 8,9 C 0,0 km/h (0 Bft)
10.08.2023 02:00 9,3 C 16,3 C 9,0 C 9,0 C 8,2 C 0,0 C 86 % 89 % 1020,8 hPa 0,0 l/m 0,0 km/h (0 Bft) N 0,00 h 7,1 C 8,2 C 0,0 km/h (0 Bft)
10.08.2023 03:00 8,9 C 16,2 C 8,6 C 8,6 C 7,9 C 0,0 C 87 % 89 % 1021,1 hPa 0,0 l/m 0,0 km/h (0 Bft) N 0,00 h 6,8 C 7,9 C 0,0 km/h (0 Bft)
10.08.2023 04:00 8,3 C 15,9 C 8,0 C 7,9 C 7,3 C 0,0 C 87 % 89 % 1021,6 hPa 0,0 l/m 0,0 km/h (0 Bft) N 0,00 h 6,3 C 7,3 C 0,0 km/h (0 Bft)
10.08.2023 05:00 7,7 C 15,7 C 7,4 C 7,3 C 6,6 C 0,0 C 88 % 88 % 1021,7 hPa 0,0 l/m 0,0 km/h (0 Bft) N 0,00 h 5,8 C 6,6 C 0,0 km/h (0 Bft)
10.08.2023 06:00 7,5 C 15,6 C 7,3 C 7,2 C 6,7 C 0,0 C 88 % 88 % 1021,5 hPa 0,0 l/m 0,0 km/h (0 Bft) N 0,00 h 5,6 C 6,7 C 0,0 km/h (0 Bft)
10.08.2023 07:00 8,2 C 15,5 C 9,1 C 13,4 C 13,3 C 5,2 C 88 % 90 % 1021,9 hPa 0,0 l/m 0,0 km/h (0 Bft) N 0,67 h 6,4 C 13,3 C 0,0 km/h (0 Bft)
10.08.2023 08:00 12,3 C 15,3 C 11,6 C 24,7 C 24,7 C 12,4 C 88 % 89 % 1021,5 hPa 0,0 l/m 0,0 km/h (0 Bft) N 1,00 h 10,3 C 24,7 C 0,0 km/h (0 Bft)
10.08.2023 09:00 17,8 C 15,1 C 14,0 C 23,2 C 23,2 C 5,4 C 73 % 79 % 1021,5 hPa 0,0 l/m 0,0 km/h (0 Bft) N 0,42 h 12,8 C 23,2 C 0,0 km/h (0 Bft)
10.08.2023 10:00 18,2 C 15,0 C 16,2 C 21,1 C 21,1 C 2,9 C 63 % 65 % 1021,7 hPa 0,0 l/m 0,0 km/h (0 Bft) N 0,42 h 11,1 C 21,1 C 0,0 km/h (0 Bft)
10.08.2023 11:00 19,1 C 15,1 C 17,7 C 21,2 C 21,2 C 2,0 C 62 % 61 % 1021,4 hPa 0,0 l/m 0,0 km/h (0 Bft) N 0,00 h 11,7 C 21,2 C 0,0 km/h (0 Bft)
10.08.2023 12:00 20,5 C 15,3 C 18,7 C 23,6 C 23,6 C 3,1 C 60 % 61 % 1021,4 hPa 0,0 l/m 0,0 km/h (0 Bft) N 0,48 h 12,4 C 23,6 C 0,0 km/h (0 Bft)
10.08.2023 13:00 22,3 C 15,4 C 20,1 C 27,4 C 27,4 C 5,2 C 56 % 58 % 1020,7 hPa 0,0 l/m 0,0 km/h (0 Bft) N 1,00 h 13,0 C 27,4 C 0,0 km/h (0 Bft)
10.08.2023 14:00 23,5 C 15,7 C 22,5 C 29,5 C 29,5 C 6,0 C 52 % 51 % 1020,2 hPa 0,0 l/m 0,0 km/h (0 Bft) N 1,00 h 12,9 C 29,5 C 0,0 km/h (0 Bft)
10.08.2023 15:00 23,1 C 15,9 C 23,1 C 30,2 C 30,2 C 7,1 C 51 % 48 % 1020,0 hPa 0,0 l/m 0,0 km/h (0 Bft) N 1,00 h 12,3 C 30,2 C 0,0 km/h (0 Bft)
10.08.2023 16:00 23,4 C 16,1 C 22,7 C 27,9 C 27,9 C 4,6 C 50 % 49 % 1019,4 hPa 0,0 l/m 0,0 km/h (0 Bft) N 0,53 h 12,3 C 27,9 C 0,0 km/h (0 Bft)
10.08.2023 17:00 23,2 C 16,3 C 22,2 C 24,4 C 24,4 C 1,2 C 50 % 49 % 1019,3 hPa 0,0 l/m 0,0 km/h (0 Bft) N 0,00 h 12,3 C 24,4 C 0,0 km/h (0 Bft)
10.08.2023 18:00 22,9 C 16,6 C 21,6 C 23,8 C 23,8 C 0,9 C 51 % 50 % 1019,3 hPa 0,0 l/m 0,0 km/h (0 Bft) N 0,00 h 12,0 C 23,8 C 0,0 km/h (0 Bft)
10.08.2023 19:00 22,5 C 16,8 C 20,6 C 23,0 C 22,8 C 0,5 C 51 % 52 % 1019,6 hPa 0,0 l/m 0,0 km/h (0 Bft) N 0,00 h 11,8 C 22,8 C 0,0 km/h (0 Bft)
10.08.2023 20:00 20,0 C 16,9 C 18,2 C 19,7 C 19,1 C 0,0 C 60 % 62 % 1019,6 hPa 0,0 l/m 0,0 km/h (0 Bft) N 0,00 h 12,0 C 19,1 C 0,0 km/h (0 Bft)
10.08.2023 21:00 18,2 C 17,0 C 17,2 C 18,0 C 17,6 C 0,0 C 68 % 68 % 1020,1 hPa 0,0 l/m 0,0 km/h (0 Bft) N 0,00 h 12,3 C 17,6 C 0,0 km/h (0 Bft)
10.08.2023 22:00 17,1 C 17,1 C 16,0 C 16,8 C 16,1 C 0,0 C 73 % 73 % 1020,3 hPa 0,0 l/m 0,0 km/h (0 Bft) N 0,00 h 12,3 C 16,1 C 0,0 km/h (0 Bft)
10.08.2023 23:00 15,9 C 17,4 C 15,0 C 15,5 C 14,8 C 0,0 C 78 % 77 % 1020,4 hPa 0,0 l/m 0,0 km/h (0 Bft) N 0,00 h 12,0 C 14,8 C 0,0 km/h (0 Bft)
11.08.2023 00:00 14,5 C 17,5 C 13,5 C 14,0 C 13,0 C 0,0 C 81 % 80 % 1020,5 hPa 0,0 l/m 0,0 km/h (0 Bft) N 0,00 h 11,3 C 13,0 C 0,0 km/h (0 Bft)
11.08.2023 01:00 13,2 C 17,5 C 12,4 C 12,7 C 11,8 C 0,0 C 83 % 82 % 1020,6 hPa 0,0 l/m 0,0 km/h (0 Bft) N 0,00 h 10,4 C 11,8 C 0,0 km/h (0 Bft)
11.08.2023 02:00 12,3 C 17,4 C 11,6 C 11,8 C 10,9 C 0,0 C 84 % 85 % 1020,8 hPa 0,0 l/m 0,0 km/h (0 Bft) N 0,00 h 9,7 C 10,9 C 0,0 km/h (0 Bft)
11.08.2023 03:00 11,5 C 17,2 C 10,9 C 11,1 C 10,3 C 0,0 C 86 % 88 % 1021,0 hPa 0,0 l/m 0,0 km/h (0 Bft) N 0,00 h 9,2 C 10,3 C 0,0 km/h (0 Bft)
11.08.2023 04:00 10,9 C 17,1 C 10,5 C 10,5 C 9,9 C 0,0 C 86 % 90 % 1021,5 hPa 0,0 l/m 0,0 km/h (0 Bft) N 0,00 h 8,6 C 9,9 C 0,0 km/h (0 Bft)
11.08.2023 05:00 10,4 C 16,9 C 10,0 C 10,1 C 9,5 C 0,0 C 87 % 90 % 1021,5 hPa 0,0 l/m 0,0 km/h (0 Bft) N 0,00 h 8,3 C 9,5 C 0,0 km/h (0 Bft)
11.08.2023 06:00 10,1 C 16,8 C 9,9 C 9,9 C 9,5 C 0,0 C 87 % 90 % 1021,6 hPa 0,0 l/m 0,0 km/h (0 Bft) N 0,00 h 8,1 C 9,5 C 0,0 km/h (0 Bft)
11.08.2023 07:00 11,5 C 16,5 C 12,0 C 18,5 C 18,5 C 7,0 C 88 % 88 % 1021,8 hPa 0,0 l/m 0,0 km/h (0 Bft) N 0,67 h 9,5 C 18,5 C 0,0 km/h (0 Bft)
11.08.2023 08:00 15,6 C 16,3 C 13,8 C 28,2 C 28,2 C 12,5 C 85 % 81 % 1022,1 hPa 0,0 l/m 0,0 km/h (0 Bft) N 1,00 h 13,2 C 28,2 C 0,0 km/h (0 Bft)
11.08.2023 09:00 18,8 C 16,2 C 15,3 C 24,7 C 24,7 C 5,8 C 73 % 78 % 1022,1 hPa 0,0 l/m 0,0 km/h (0 Bft) N 0,58 h 13,8 C 24,7 C 0,0 km/h (0 Bft)
11.08.2023 10:00 19,5 C 16,2 C 17,0 C 21,6 C 21,6 C 2,1 C 67 % 69 % 1022,2 hPa 0,0 l/m 0,0 km/h (0 Bft) N 0,00 h 13,1 C 21,6 C 0,0 km/h (0 Bft)
11.08.2023 11:00 20,5 C 16,2 C 18,9 C 22,1 C 22,1 C 1,6 C 61 % 61 % 1021,8 hPa 0,0 l/m 0,0 km/h (0 Bft) N 0,00 h 12,7 C 22,1 C 0,0 km/h (0 Bft)
11.08.2023 12:00 22,9 C 16,3 C 20,6 C 23,8 C 23,6 C 0,9 C 55 % 57 % 1021,9 hPa 0,0 l/m 0,0 km/h (0 Bft) N 0,00 h 13,4 C 23,6 C 0,0 km/h (0 Bft)
11.08.2023 13:00 26,1 C 16,5 C 22,2 C 25,4 C 24,0 C 0,0 C 48 % 52 % 1021,6 hPa 0,0 l/m 0,0 km/h (0 Bft) N 0,00 h 14,1 C 24,0 C 0,0 km/h (0 Bft)
11.08.2023 14:00 27,0 C 16,7 C 24,9 C 26,0 C 24,0 C 0,0 C 46 % 51 % 1021,4 hPa 0,0 l/m 0,0 km/h (0 Bft) N 0,00 h 14,4 C 24,0 C 0,0 km/h (0 Bft)
11.08.2023 15:00 26,4 C 17,0 C 25,5 C 25,6 C 24,0 C 0,0 C 48 % 49 % 1020,9 hPa 0,0 l/m 0,0 km/h (0 Bft) N 0,00 h 14,3 C 24,0 C 0,0 km/h (0 Bft)
11.08.2023 16:00 26,7 C 17,2 C 25,6 C 25,8 C 24,0 C 0,0 C 48 % 51 % 1020,9 hPa 0,0 l/m 0,0 km/h (0 Bft) N 0,00 h 14,9 C 24,0 C 0,0 km/h (0 Bft)
11.08.2023 17:00 27,2 C 17,5 C 25,7 C 26,1 C 24,0 C 0,0 C 47 % 50 % 1020,7 hPa 0,0 l/m 0,0 km/h (0 Bft) N 0,00 h 15,0 C 24,0 C 0,0 km/h (0 Bft)
11.08.2023 18:00 27,1 C 17,8 C 25,0 C 26,0 C 24,0 C 0,0 C 48 % 52 % 1020,2 hPa 0,0 l/m 0,0 km/h (0 Bft) N 0,00 h 15,1 C 24,0 C 0,0 km/h (0 Bft)
11.08.2023 19:00 26,0 C 18,0 C 23,5 C 26,0 C 25,9 C 0,1 C 52 % 60 % 1019,9 hPa 0,0 l/m 0,0 km/h (0 Bft) N 0,00 h 15,4 C 25,9 C 0,0 km/h (0 Bft)
11.08.2023 20:00 23,6 C 18,3 C 21,1 C 23,2 C 22,5 C 0,0 C 61 % 68 % 1019,5 hPa 0,0 l/m 0,0 km/h (0 Bft) N 0,00 h 15,6 C 22,5 C 0,0 km/h (0 Bft)
11.08.2023 21:00 20,7 C 18,5 C 18,7 C 20,2 C 19,0 C 0,0 C 70 % 74 % 1019,5 hPa 0,0 l/m 0,0 km/h (0 Bft) N 0,00 h 15,1 C 19,0 C 0,0 km/h (0 Bft)
11.08.2023 22:00 18,6 C 18,6 C 17,5 C 18,2 C 17,4 C 0,0 C 77 % 78 % 1019,3 hPa 0,0 l/m 0,0 km/h (0 Bft) N 0,00 h 14,5 C 17,4 C 0,0 km/h (0 Bft)
11.08.2023 23:00 17,5 C 18,8 C 16,6 C 17,1 C 16,3 C 0,0 C 81 % 82 % 1019,1 hPa 0,0 l/m 0,0 km/h (0 Bft) N 0,00 h 14,2 C 16,3 C 0,0 km/h (0 Bft)
12.08.2023 00:00 16,4 C 18,8 C 15,6 C 16,1 C 15,3 C 0,0 C 83 % 83 % 1018,8 hPa 0,0 l/m 0,0 km/h (0 Bft) N 0,00 h 13,5 C 15,3 C 0,0 km/h (0 Bft)
12.08.2023 01:00 15,7 C 18,8 C 15,0 C 15,3 C 14,6 C 0,0 C 84 % 84 % 1018,7 hPa 0,0 l/m 0,0 km/h (0 Bft) N 0,00 h 13,0 C 14,6 C 0,0 km/h (0 Bft)
12.08.2023 02:00 15,0 C 18,6 C 14,5 C 14,7 C 14,1 C 0,0 C 86 % 90 % 1018,6 hPa 0,0 l/m 0,0 km/h (0 Bft) N 0,00 h 12,6 C 14,1 C 0,0 km/h (0 Bft)
12.08.2023 03:00 14,6 C 18,6 C 14,2 C 14,3 C 13,8 C 0,0 C 87 % 90 % 1018,5 hPa 0,0 l/m 0,0 km/h (0 Bft) N 0,00 h 12,4 C 13,8 C 0,0 km/h (0 Bft)
12.08.2023 04:00 14,3 C 18,5 C 13,9 C 14,0 C 13,6 C 0,0 C 87 % 90 % 1017,9 hPa 0,0 l/m 0,0 km/h (0 Bft) N 0,00 h 12,1 C 13,6 C 0,0 km/h (0 Bft)
12.08.2023 05:00 14,1 C 18,3 C 13,9 C 13,9 C 13,7 C 0,0 C 88 % 90 % 1017,3 hPa 0,0 l/m 0,0 km/h (0 Bft) N 0,00 h 12,1 C 13,7 C 0,0 km/h (0 Bft)
12.08.2023 06:00 14,0 C 18,2 C 14,1 C 14,1 C 14,0 C 0,1 C 88 % 90 % 1017,1 hPa 0,0 l/m 0,0 km/h (0 Bft) N 0,00 h 12,1 C 14,0 C 0,0 km/h (0 Bft)
12.08.2023 07:00 14,6 C 18,1 C 15,5 C 17,9 C 17,9 C 3,2 C 88 % 90 % 1016,9 hPa 0,0 l/m 0,0 km/h (0 Bft) N 0,67 h 12,7 C 17,9 C 0,0 km/h (0 Bft)
12.08.2023 08:00 16,4 C 18,0 C 17,0 C 22,1 C 22,1 C 5,7 C 88 % 86 % 1016,8 hPa 0,0 l/m 0,0 km/h (0 Bft) N 1,00 h 14,4 C 22,1 C 0,0 km/h (0 Bft)
12.08.2023 09:00 19,9 C 17,8 C 19,0 C 24,0 C 24,0 C 4,1 C 86 % 84 % 1016,7 hPa 0,0 l/m 0,0 km/h (0 Bft) N 1,00 h 17,5 C 24,0 C 0,0 km/h (0 Bft)
12.08.2023 10:00 24,8 C 17,7 C 23,0 C 29,7 C 29,7 C 4,9 C 75 % 80 % 1016,2 hPa 0,0 l/m 0,0 km/h (0 Bft) N 0,92 h 19,9 C 29,7 C 0,0 km/h (0 Bft)
12.08.2023 11:00 27,2 C 17,9 C 24,3 C 29,5 C 29,5 C 2,3 C 65 % 76 % 1016,0 hPa 0,0 l/m 0,0 km/h (0 Bft) N 0,00 h 20,1 C 29,5 C 0,0 km/h (0 Bft)
12.08.2023 12:00 28,3 C 18,1 C 24,9 C 30,5 C 30,5 C 2,2 C 62 % 74 % 1015,4 hPa 0,0 l/m 0,0 km/h (0 Bft) N 0,00 h 20,2 C 30,5 C 0,0 km/h (0 Bft)
12.08.2023 13:00 28,1 C 18,3 C 25,0 C 30,2 C 30,2 C 2,1 C 58 % 69 % 1015,3 hPa 0,0 l/m 0,0 km/h (0 Bft) N 0,00 h 18,9 C 30,2 C 0,0 km/h (0 Bft)
12.08.2023 14:00 27,9 C 18,4 C 25,6 C 31,1 C 31,1 C 3,2 C 58 % 67 % 1014,9 hPa 0,0 l/m 0,0 km/h (0 Bft) N 0,42 h 18,7 C 31,1 C 0,0 km/h (0 Bft)
12.08.2023 15:00 29,4 C 18,7 C 27,5 C 36,0 C 36,0 C 6,5 C 52 % 60 % 1014,1 hPa 0,0 l/m 0,0 km/h (0 Bft) N 1,00 h 18,4 C 36,0 C 0,0 km/h (0 Bft)
12.08.2023 16:00 30,1 C 18,8 C 27,7 C 33,4 C 33,4 C 3,3 C 48 % 57 % 1013,9 hPa 0,0 l/m 0,0 km/h (0 Bft) N 0,27 h 17,8 C 33,4 C 0,3 km/h (0 Bft)
12.08.2023 17:00 29,7 C 19,1 C 27,0 C 31,5 C 31,5 C 1,8 C 48 % 58 % 1013,7 hPa 0,0 l/m 0,0 km/h (0 Bft) N 0,00 h 17,6 C 31,5 C 0,0 km/h (0 Bft)
12.08.2023 18:00 23,5 C 19,8 C 21,3 C 31,5 C 31,5 C 8,0 C 73 % 85 % 1015,2 hPa 3,4 l/m 0,0 km/h (0 Bft) N 0,92 h 18,2 C 31,5 C 0,0 km/h (0 Bft)
12.08.2023 19:00 21,1 C 19,9 C 20,4 C 31,5 C 31,5 C 10,4 C 85 % 90 % 1014,9 hPa 0,0 l/m 0,0 km/h (0 Bft) N 1,00 h 18,4 C 31,5 C 0,0 km/h (0 Bft)
12.08.2023 20:00 20,5 C 19,9 C 19,6 C 31,5 C 31,5 C 11,0 C 86 % 90 % 1014,7 hPa 0,0 l/m 0,0 km/h (0 Bft) N 0,27 h 18,1 C 31,5 C 0,0 km/h (0 Bft)
12.08.2023 21:00 19,6 C 20,0 C 18,9 C 31,5 C 31,5 C 11,9 C 87 % 90 % 1014,7 hPa 0,0 l/m 0,0 km/h (0 Bft) N 0,00 h 17,4 C 31,5 C 0,0 km/h (0 Bft)
12.08.2023 22:00 18,9 C 19,9 C 18,5 C 31,5 C 31,5 C 12,6 C 88 % 90 % 1014,5 hPa 0,0 l/m 0,0 km/h (0 Bft) N 0,00 h 16,9 C 31,5 C 0,0 km/h (0 Bft)
12.08.2023 23:00 18,3 C 19,9 C 18,1 C 31,5 C 31,5 C 13,2 C 88 % 90 % 1014,7 hPa 0,0 l/m 0,0 km/h (0 Bft) N 0,00 h 16,2 C 31,5 C 0,0 km/h (0 Bft)
13.08.2023 00:00 17,7 C 19,8 C 17,6 C 31,5 C 31,5 C 13,8 C 88 % 90 % 1015,0 hPa 0,0 l/m 0,0 km/h (0 Bft) N 0,00 h 15,7 C 31,5 C 0,0 km/h (0 Bft)
13.08.2023 01:00 17,6 C 19,7 C 17,6 C 28,0 C 28,0 C 10,4 C 88 % 90 % 1015,3 hPa 0,0 l/m 0,0 km/h (0 Bft) N 0,00 h 15,6 C 28,0 C 0,0 km/h (0 Bft)
13.08.2023 02:00 17,5 C 19,6 C 17,7 C 17,7 C 17,7 C 0,3 C 88 % 90 % 1015,3 hPa 0,0 l/m 0,0 km/h (0 Bft) N 0,00 h 15,5 C 17,7 C 0,0 km/h (0 Bft)
13.08.2023 03:00 17,3 C 19,5 C 17,8 C 17,9 C 17,9 C 0,5 C 88 % 90 % 1015,6 hPa 0,0 l/m 0,0 km/h (0 Bft) N 0,00 h 15,3 C 17,9 C 0,0 km/h (0 Bft)
13.08.2023 04:00 17,3 C 19,5 C 18,0 C 18,1 C 18,1 C 0,9 C 88 % 90 % 1015,7 hPa 0,0 l/m 0,0 km/h (0 Bft) N 0,00 h 15,2 C 18,1 C 0,0 km/h (0 Bft)
13.08.2023 05:00 17,3 C 19,4 C 17,9 C 18,0 C 18,0 C 0,7 C 88 % 90 % 1015,9 hPa 0,0 l/m 0,0 km/h (0 Bft) N 0,00 h 15,3 C 18,0 C 0,0 km/h (0 Bft)
13.08.2023 06:00 17,0 C 19,4 C 17,5 C 17,7 C 17,7 C 0,6 C 88 % 90 % 1016,0 hPa 0,0 l/m 0,0 km/h (0 Bft) N 0,33 h 15,0 C 17,7 C 0,0 km/h (0 Bft)
13.08.2023 07:00 17,2 C 19,3 C 18,2 C 20,2 C 20,2 C 3,0 C 88 % 90 % 1016,0 hPa 0,0 l/m 0,0 km/h (0 Bft) N 0,58 h 15,2 C 20,2 C 0,0 km/h (0 Bft)
13.08.2023 08:00 18,3 C 19,4 C 19,4 C 22,3 C 22,3 C 4,0 C 89 % 90 % 1016,1 hPa 0,0 l/m 0,0 km/h (0 Bft) N 1,00 h 16,4 C 22,3 C 0,0 km/h (0 Bft)
13.08.2023 09:00 19,5 C 19,3 C 20,1 C 26,4 C 26,4 C 6,9 C 88 % 90 % 1016,2 hPa 0,0 l/m 0,0 km/h (0 Bft) N 1,00 h 17,5 C 26,4 C 0,0 km/h (0 Bft)
13.08.2023 10:00 22,2 C 19,2 C 20,7 C 26,1 C 26,1 C 3,9 C 84 % 90 % 1016,4 hPa 0,0 l/m 0,0 km/h (0 Bft) N 0,52 h 19,4 C 26,1 C 0,0 km/h (0 Bft)
13.08.2023 11:00 23,4 C 19,1 C 21,4 C 26,6 C 26,6 C 3,2 C 79 % 89 % 1016,2 hPa 0,0 l/m 0,0 km/h (0 Bft) N 0,50 h 19,5 C 26,6 C 0,0 km/h (0 Bft)
13.08.2023 12:00 25,1 C 19,1 C 22,2 C 27,1 C 27,1 C 2,0 C 73 % 87 % 1015,9 hPa 0,0 l/m 0,0 km/h (0 Bft) N 0,00 h 20,0 C 27,1 C 0,0 km/h (0 Bft)
13.08.2023 13:00 27,3 C 19,2 C 23,3 C 27,4 C 27,1 C 0,2 C 65 % 76 % 1015,6 hPa 0,0 l/m 0,0 km/h (0 Bft) N 0,00 h 20,1 C 27,1 C 0,0 km/h (0 Bft)
13.08.2023 14:00 28,2 C 19,3 C 25,3 C 27,8 C 27,1 C 0,0 C 60 % 75 % 1015,0 hPa 0,0 l/m 0,0 km/h (0 Bft) N 0,00 h 19,7 C 27,1 C 0,0 km/h (0 Bft)
13.08.2023 15:00 28,2 C 19,4 C 26,0 C 27,8 C 27,1 C 0,0 C 59 % 72 % 1014,7 hPa 0,0 l/m 0,0 km/h (0 Bft) N 0,00 h 19,5 C 27,1 C 0,0 km/h (0 Bft)
13.08.2023 16:00 28,4 C 19,6 C 26,4 C 28,0 C 27,1 C 0,0 C 57 % 69 % 1014,2 hPa 0,0 l/m 0,0 km/h (0 Bft) N 0,00 h 19,1 C 27,1 C 0,0 km/h (0 Bft)
13.08.2023 17:00 28,2 C 19,7 C 26,0 C 27,8 C 27,1 C 0,0 C 56 % 68 % 1014,0 hPa 0,0 l/m 0,0 km/h (0 Bft) N 0,00 h 18,6 C 27,1 C 0,0 km/h (0 Bft)
13.08.2023 18:00 27,2 C 19,9 C 24,8 C 27,2 C 27,1 C 0,2 C 57 % 68 % 1013,9 hPa 0,0 l/m 0,0 km/h (0 Bft) N 0,00 h 17,9 C 27,1 C 0,0 km/h (0 Bft)
13.08.2023 19:00 25,9 C 20,0 C 23,5 C 27,1 C 27,1 C 1,2 C 62 % 74 % 1013,9 hPa 0,0 l/m 0,0 km/h (0 Bft) N 0,33 h 18,0 C 27,1 C 0,0 km/h (0 Bft)
13.08.2023 20:00 23,8 C 20,1 C 21,7 C 27,1 C 27,1 C 3,3 C 70 % 80 % 1014,0 hPa 0,0 l/m 0,0 km/h (0 Bft) N 0,27 h 18,1 C 27,1 C 0,0 km/h (0 Bft)
13.08.2023 21:00 21,7 C 20,4 C 20,4 C 27,1 C 27,1 C 5,4 C 77 % 84 % 1014,3 hPa 0,0 l/m 0,0 km/h (0 Bft) N 0,00 h 17,6 C 27,1 C 0,0 km/h (0 Bft)
13.08.2023 22:00 20,4 C 20,5 C 19,5 C 27,1 C 27,1 C 6,7 C 82 % 88 % 1014,4 hPa 0,0 l/m 0,0 km/h (0 Bft) N 0,00 h 17,2 C 27,1 C 0,0 km/h (0 Bft)
13.08.2023 23:00 19,9 C 20,5 C 19,3 C 27,1 C 27,1 C 7,2 C 85 % 90 % 1014,5 hPa 0,0 l/m 0,0 km/h (0 Bft) N 0,00 h 17,2 C 27,1 C 0,0 km/h (0 Bft)
Min-Datum _ 10.08.23 10.08.23 10.08.23 10.08.23 10.08.23 07.08.23 11.08.23 09.08.23 07.08.23 - 07.08.23 - - 10.08.23 10.08.23 07.08.23
_ Min-Zeit 06:20 09:30 06:10 06:10 05:40 00:00 14:45 16:05 00:00 - 00:00 - - 06:20 05:40 00:00
Minimum _ 7,3 C 15,0 C 7,1 C 7,1 C 6,3 C 0,0 C 44 % 45 % 1003,0 hPa - 0,0 km/h (0 Bft) - - 5,4 C 6,3 C 0,0 km/h (0 Bft)
Max-Datum _ 12.08.23 13.08.23 12.08.23 12.08.23 12.08.23 13.08.23 07.08.23 07.08.23 10.08.23 09.08.23 07.08.23 - 12.08.23 12.08.23 12.08.23 07.08.23
_ Max-Zeit 16:11 22:00 15:55 15:26 15:26 00:50 01:30 00:00 07:20 06:41 08:05 - 18:27 12:50 15:26 14:35
Maximum _ 30,3 C 20,5 C 28,1 C 37,4 C 37,4 C 14,0 C 89 % 90 % 1022,5 hPa 6,9 l/m 2,7 km/h
S-SW (1 Bft)
- 0,27 h 20,7 C 37,4 C 14,2 km/h
N (3 Bft)
Durchschnitt _ 17,5 C 17,3 C 16,7 C 19,4 C 19,1 C 2,0 C 75 % 77 % 1015,5 hPa #17,9 l/m 0,1 km/h (0 Bft) SW #29:10 h 12,7 C 19,1 C 0,3 km/h (0 Bft)
2023 www.wetterstation-wechselburg.de